Time;durP1;ratioP1;P1;durP2;ratioP2;P2;SDS_P1;SDS_P2;PMS_P1;PMS_P2;Temp;Humidity;BMP_temperature;BMP_pressure;BME280_temperature;BME280_humidity;BME280_pressure;Samples;Min_cycle;Max_cycle;Signal;HPM_P1;HPM_P2
2023/02/02 00:01:44;;;;;;;11.32;1.95;;;8.30;99.90;;;;;;5019263;28;20073;-41
2023/02/02 00:04:22;;;;;;;7.03;2.10;;;8.30;99.90;;;;;;5028989;28;20069;-41
2023/02/02 00:06:48;;;;;;;;;;;8.20;99.90;;;;;;5021985;28;20394;-42
2023/02/02 00:09:17;;;;;;;7.38;1.63;;;8.20;99.90;;;;;;5031829;28;20003;-42
2023/02/02 00:11:44;;;;;;;14.90;2.03;;;8.20;99.90;;;;;;5027207;28;20036;-41
2023/02/02 00:14:10;;;;;;;14.15;2.30;;;8.20;99.90;;;;;;5031528;28;20486;-42
2023/02/02 00:16:45;;;;;;;14.88;2.88;;;8.10;99.90;;;;;;5026771;28;20034;-43
2023/02/02 00:19:13;;;;;;;4.03;1.10;;;8.10;99.90;;;;;;5013545;28;20033;-42
2023/02/02 00:21:39;;;;;;;36.92;4.25;;;8.10;99.90;;;;;;5027787;28;20072;-43
2023/02/02 00:24:08;;;;;;;11.00;1.73;;;8.10;99.90;;;;;;5014030;28;20133;-45
2023/02/02 00:26:34;;;;;;;;;;;8.20;99.90;;;;;;5032935;28;20024;-42
2023/02/02 00:28:59;;;;;;;16.90;3.30;;;8.20;99.90;;;;;;5033295;28;19909;-40
2023/02/02 00:31:25;;;;;;;10.10;1.85;;;8.20;99.90;;;;;;5020068;28;20376;-36
2023/02/02 00:33:51;;;;;;;14.00;2.72;;;8.20;99.90;;;;;;5031809;28;20040;-37
2023/02/02 00:36:17;;;;;;;30.20;4.05;;;8.10;99.90;;;;;;5031302;28;20078;-37
2023/02/02 00:38:43;;;;;;;14.10;2.40;;;8.00;99.90;;;;;;5025946;28;20144;-39
2023/02/02 00:41:09;;;;;;;10.35;2.10;;;8.00;99.90;;;;;;5020684;28;20525;-37
2023/02/02 00:43:34;;;;;;;20.13;2.08;;;8.00;99.90;;;;;;5026059;28;20025;-42
2023/02/02 00:46:00;;;;;;;13.90;2.38;;;7.90;99.90;;;;;;5032295;28;20032;-42
2023/02/02 00:48:26;;;;;;;7.50;1.80;;;7.80;99.90;;;;;;5029900;28;21394;-38
2023/02/02 00:50:52;;;;;;;8.32;1.10;;;7.80;99.90;;;;;;5019932;28;20030;-39
2023/02/02 00:53:18;;;;;;;11.65;1.23;;;7.70;99.90;;;;;;5023041;28;20031;-39
2023/02/02 00:55:43;;;;;;;10.13;1.10;;;7.70;99.90;;;;;;5028442;28;20489;-37
2023/02/02 00:58:09;;;;;;;7.38;0.70;;;7.50;99.90;;;;;;5031616;28;20025;-42
2023/02/02 01:00:36;;;;;;;4.30;1.02;;;7.40;99.90;;;;;;5025928;28;20398;-38
2023/02/02 01:03:03;;;;;;;7.50;0.70;;;7.30;99.90;;;;;;5032536;28;20025;-40
2023/02/02 01:05:33;;;;;;;2.80;0.52;;;7.30;99.90;;;;;;5030982;28;20112;-39
2023/02/02 01:07:59;;;;;;;1.08;0.50;;;7.30;99.90;;;;;;5029384;28;20048;-41
2023/02/02 01:10:25;;;;;;;5.28;1.42;;;7.30;99.90;;;;;;5016763;28;20029;-38
2023/02/02 01:12:51;;;;;;;1.65;0.52;;;7.20;99.90;;;;;;5025886;28;20057;-42
2023/02/02 01:15:16;;;;;;;9.68;1.05;;;7.20;99.90;;;;;;5031395;28;20430;-42
2023/02/02 01:17:42;;;;;;;9.73;1.42;;;7.10;99.90;;;;;;5027661;28;20064;-43
2023/02/02 01:20:14;;;;;;;5.75;1.08;;;7.20;99.90;;;;;;5028537;28;20017;-41
2023/02/02 01:22:40;;;;;;;8.07;1.20;;;7.20;99.90;;;;;;5030340;28;20033;-42
2023/02/02 01:25:06;;;;;;;6.20;0.75;;;7.20;99.90;;;;;;5031032;28;20083;-43
2023/02/02 01:27:31;;;;;;;6.05;1.33;;;7.20;99.90;;;;;;5030244;28;20469;-41
2023/02/02 01:29:57;;;;;;;2.63;0.80;;;7.20;99.90;;;;;;5019954;28;20439;-39
2023/02/02 01:32:23;;;;;;;15.63;1.90;;;7.20;99.90;;;;;;5030936;28;20069;-39
2023/02/02 01:34:48;;;;;;;9.15;1.45;;;7.30;99.90;;;;;;5029699;28;20034;-38
2023/02/02 01:37:14;;;;;;;6.57;1.02;;;7.30;99.90;;;;;;5018458;28;20394;-39
2023/02/02 01:39:39;;;;;;;12.55;1.98;;;7.40;99.90;;;;;;5031539;28;20056;-41
2023/02/02 01:42:13;;;;;;;13.27;1.88;;;7.40;99.90;;;;;;5030586;28;20482;-40
2023/02/02 01:45:09;;;;;;;8.57;1.90;;;7.50;99.90;;;;;;5025976;28;20466;-39
2023/02/02 01:47:42;;;;;;;2.33;1.40;;;7.50;99.90;;;;;;5020625;28;20025;-38
2023/02/02 01:50:10;;;;;;;8.35;2.17;;;7.60;99.90;;;;;;5031434;28;20486;-41
2023/02/02 01:52:37;;;;;;;;;;;7.60;99.90;;;;;;5031269;28;20482;-38
2023/02/02 01:55:10;;;;;;;10.40;2.22;;;7.60;99.90;;;;;;5029790;28;19909;-38
2023/02/02 01:57:48;;;;;;;15.38;2.45;;;7.60;99.90;;;;;;5032491;28;20647;-37
2023/02/02 02:00:14;;;;;;;;;;;7.70;99.90;;;;;;5031903;28;20037;-40
2023/02/02 02:02:45;;;;;;;20.08;2.30;;;7.70;99.90;;;;;;5030355;28;19913;-38
2023/02/02 02:05:14;;;;;;;19.25;2.08;;;7.70;99.90;;;;;;5029530;28;20029;-39
2023/02/02 02:07:42;;;;;;;20.00;2.58;;;7.80;99.90;;;;;;5028955;28;20037;-35
2023/02/02 02:10:08;;;;;;;23.50;3.17;;;7.80;99.90;;;;;;5031420;28;20490;-37
2023/02/02 02:12:34;;;;;;;14.65;3.22;;;7.80;99.90;;;;;;5028373;28;20540;-39
2023/02/02 02:17:59;;;;;;;16.65;2.55;;;7.90;99.90;;;;;;5026530;28;20049;-38
2023/02/02 02:27:09;;;;;;;21.73;4.47;;;7.90;99.90;;;;;;5027878;28;20110;-42
2023/02/02 02:29:43;;;;;;;9.75;2.20;;;7.90;99.90;;;;;;5028624;28;20095;-42
2023/02/02 02:32:32;;;;;;;19.98;2.50;;;7.90;99.90;;;;;;5035079;28;20385;-41
2023/02/02 02:35:01;;;;;;;24.65;2.58;;;7.90;99.90;;;;;;5034736;28;20418;-43
2023/02/02 02:37:37;;;;;;;23.80;2.63;;;8.00;99.90;;;;;;5023681;28;20026;-42
2023/02/02 02:40:12;;;;;;;22.75;2.80;;;8.00;99.90;;;;;;5016360;28;20034;-42
2023/02/02 02:42:48;;;;;;;10.48;2.75;;;7.90;99.90;;;;;;5031409;28;20582;-43
2023/02/02 02:45:16;;;;;;;12.40;2.65;;;8.00;99.90;;;;;;5020244;28;20695;-43
2023/02/02 02:47:43;;;;;;;20.52;3.13;;;8.00;99.90;;;;;;5026268;28;20026;-43
2023/02/02 02:50:09;;;;;;;13.07;2.20;;;8.00;99.90;;;;;;5020193;28;20030;-43
2023/02/02 02:52:36;;;;;;;17.65;3.13;;;8.00;99.90;;;;;;5024481;28;20474;-42
2023/02/02 02:55:04;;;;;;;14.63;2.67;;;8.00;99.90;;;;;;5018636;28;20036;-46
2023/02/02 02:57:57;;;;;;;12.70;2.13;;;8.00;99.90;;;;;;5017866;28;20524;-41
2023/02/02 03:00:46;;;;;;;8.05;1.58;;;8.10;99.90;;;;;;5020326;28;20466;-38
2023/02/02 03:03:31;;;;;;;13.10;2.40;;;8.10;99.90;;;;;;5021810;28;20030;-35
2023/02/02 03:06:13;;;;;;;12.73;2.20;;;8.10;99.90;;;;;;5029315;28;20030;-37
2023/02/02 03:08:57;;;;;;;9.30;1.85;;;8.10;99.90;;;;;;5017168;28;20502;-35
2023/02/02 03:11:22;;;;;;;14.95;4.05;;;8.10;99.90;;;;;;5024053;28;20025;-39
2023/02/02 03:13:48;;;;;;;16.77;2.33;;;8.20;99.90;;;;;;5015333;28;20100;-37
2023/02/02 03:16:15;;;;;;;14.00;2.22;;;8.20;99.90;;;;;;5015597;28;20014;-37
2023/02/02 03:18:41;;;;;;;14.32;2.50;;;8.20;99.90;;;;;;5024977;28;20048;-37
2023/02/02 03:21:06;;;;;;;14.60;2.65;;;8.20;99.90;;;;;;5022092;28;20030;-38
2023/02/02 03:23:32;;;;;;;17.55;2.28;;;8.20;99.90;;;;;;5035190;28;20053;-38
2023/02/02 03:25:58;;;;;;;6.68;2.67;;;8.20;99.90;;;;;;5034970;28;20024;-39
2023/02/02 03:28:24;;;;;;;13.75;2.47;;;8.20;99.90;;;;;;5032554;28;20028;-38
2023/02/02 03:30:52;;;;;;;18.00;2.28;;;8.20;99.90;;;;;;5034849;28;20022;-39
2023/02/02 03:33:18;;;;;;;24.42;3.90;;;8.30;99.90;;;;;;5033598;28;20030;-37
2023/02/02 03:35:44;;;;;;;20.42;2.70;;;8.30;99.90;;;;;;5035044;28;20498;-37
2023/02/02 03:38:11;;;;;;;10.07;3.30;;;8.20;99.90;;;;;;5030558;28;20036;-40
2023/02/02 03:40:37;;;;;;;30.83;3.25;;;8.20;99.90;;;;;;5015325;28;20141;-40
2023/02/02 03:43:03;;;;;;;28.10;3.35;;;8.30;99.90;;;;;;5015428;28;20493;-37
2023/02/02 03:45:30;;;;;;;27.95;3.35;;;8.30;99.90;;;;;;5015704;28;20018;-40
2023/02/02 03:47:56;;;;;;;20.98;3.25;;;8.30;99.90;;;;;;5020139;28;20033;-39
2023/02/02 03:50:24;;;;;;;20.75;2.38;;;8.30;99.90;;;;;;5033430;28;20026;-39
2023/02/02 03:52:49;;;;;;;7.53;1.48;;;8.40;99.90;;;;;;5033196;28;20029;-38
2023/02/02 03:55:16;;;;;;;21.52;2.40;;;8.40;99.90;;;;;;5033652;28;20029;-38
2023/02/02 03:57:41;;;;;;;8.98;2.13;;;8.40;99.90;;;;;;5032582;28;20034;-41
2023/02/02 04:00:08;;;;;;;14.25;2.28;;;8.40;99.90;;;;;;5033561;28;20034;-40
2023/02/02 04:02:33;;;;;;;15.35;2.13;;;8.30;99.90;;;;;;5033246;28;20022;-36
2023/02/02 04:04:59;;;;;;;11.55;2.88;;;8.30;99.90;;;;;;5034121;28;20029;-42
2023/02/02 04:07:24;;;;;;;14.75;3.03;;;8.40;99.90;;;;;;5026144;28;20045;-40
2023/02/02 04:09:50;;;;;;;14.30;2.30;;;8.40;99.90;;;;;;5025506;28;20036;-41
2023/02/02 04:12:15;;;;;;;16.88;2.88;;;8.40;99.90;;;;;;5022925;28;20474;-39
2023/02/02 04:14:41;;;;;;;15.63;2.38;;;8.40;99.90;;;;;;5017589;28;20520;-38
2023/02/02 04:17:06;;;;;;;13.13;1.73;;;8.50;99.90;;;;;;5016009;28;20033;-39
2023/02/02 04:19:32;;;;;;;15.23;1.67;;;8.40;99.90;;;;;;5030389;28;20486;-43
2023/02/02 04:21:58;;;;;;;8.57;1.98;;;8.40;99.90;;;;;;5033001;28;20033;-41
2023/02/02 04:24:23;;;;;;;13.65;1.40;;;8.40;99.90;;;;;;5024400;28;20097;-45
2023/02/02 04:26:49;;;;;;;14.35;2.05;;;8.40;99.90;;;;;;5016992;28;20379;-43
2023/02/02 04:29:14;;;;;;;9.00;2.17;;;8.50;99.90;;;;;;5030603;28;20095;-40
2023/02/02 04:31:40;;;;;;;15.00;2.78;;;8.50;99.90;;;;;;5033310;28;20021;-43
2023/02/02 04:34:06;;;;;;;16.48;3.40;;;8.50;99.90;;;;;;5025436;28;20045;-46
2023/02/02 04:36:31;;;;;;;18.38;2.67;;;8.50;99.90;;;;;;5033625;28;20342;-41
2023/02/02 04:38:57;;;;;;;12.45;2.83;;;8.50;99.90;;;;;;5033700;28;20477;-41
2023/02/02 04:41:23;;;;;;;12.20;1.80;;;8.50;99.90;;;;;;5032218;28;20029;-43
2023/02/02 04:43:49;;;;;;;13.25;2.90;;;8.50;99.90;;;;;;5027179;28;20500;-41
2023/02/02 04:46:15;;;;;;;11.82;1.58;;;8.50;99.90;;;;;;5030650;28;20034;-44
2023/02/02 04:48:41;;;;;;;7.72;1.85;;;8.50;99.90;;;;;;5029534;28;20100;-43
2023/02/02 04:51:12;;;;;;;14.20;2.15;;;8.50;99.90;;;;;;5030136;28;20038;-39
2023/02/02 04:53:38;;;;;;;16.83;2.40;;;8.60;99.90;;;;;;5021982;28;20482;-42
2023/02/02 04:56:06;;;;;;;6.55;1.65;;;8.60;99.90;;;;;;5013641;28;20029;-42
2023/02/02 04:58:32;;;;;;;12.20;2.38;;;8.70;99.90;;;;;;5018406;28;20029;-45
2023/02/02 05:00:58;;;;;;;7.07;1.77;;;8.60;99.90;;;;;;5033537;28;20086;-41
2023/02/02 05:03:23;;;;;;;13.02;2.55;;;8.60;99.90;;;;;;5031768;28;20025;-41
2023/02/02 05:05:49;;;;;;;7.53;1.83;;;8.60;99.90;;;;;;5028614;28;20378;-42
2023/02/02 05:08:15;;;;;;;12.35;1.60;;;8.60;99.90;;;;;;5012746;28;20034;-41
2023/02/02 05:10:41;;;;;;;16.15;2.10;;;8.60;99.90;;;;;;5013904;28;20030;-41
2023/02/02 05:13:07;;;;;;;10.27;2.05;;;8.60;99.90;;;;;;5031489;28;20033;-40
2023/02/02 05:15:33;;;;;;;14.27;2.28;;;8.60;99.90;;;;;;5033240;28;20478;-40
2023/02/02 05:17:58;;;;;;;27.27;2.65;;;8.60;99.90;;;;;;5029689;28;20100;-41
2023/02/02 05:20:24;;;;;;;8.70;2.33;;;8.60;99.90;;;;;;5032859;28;20018;-44
2023/02/02 05:22:50;;;;;;;16.88;2.63;;;8.60;99.90;;;;;;5016604;28;20030;-42
2023/02/02 05:25:16;;;;;;;14.07;2.53;;;8.60;99.90;;;;;;5013429;28;20032;-41
2023/02/02 05:27:43;;;;;;;10.15;1.83;;;8.50;99.90;;;;;;5026562;28;20489;-45
2023/02/02 05:30:10;;;;;;;6.28;1.40;;;8.50;99.90;;;;;;5033151;28;20144;-43
2023/02/02 05:32:36;;;;;;;13.85;2.28;;;8.50;99.90;;;;;;5029825;28;20040;-42
2023/02/02 05:35:01;;;;;;;11.45;1.95;;;8.50;99.90;;;;;;5032749;28;20474;-42
2023/02/02 05:37:27;;;;;;;18.60;2.30;;;8.50;99.90;;;;;;5030976;28;20040;-41
2023/02/02 05:39:53;;;;;;;10.32;1.88;;;8.50;99.90;;;;;;5031947;28;20036;-42
2023/02/02 05:42:18;;;;;;;15.95;1.75;;;8.50;99.90;;;;;;5028436;28;20035;-41
2023/02/02 05:44:44;;;;;;;13.30;1.92;;;8.50;99.90;;;;;;5034562;28;20135;-45
2023/02/02 05:47:09;;;;;;;5.88;1.52;;;8.50;99.90;;;;;;5023177;28;20046;-42
2023/02/02 05:49:35;;;;;;;15.57;3.60;;;8.50;99.90;;;;;;5017017;28;20022;-43
2023/02/02 05:52:00;;;;;;;16.67;1.98;;;8.60;99.90;;;;;;5017055;28;20397;-42
2023/02/02 05:54:26;;;;;;;19.90;2.28;;;8.60;99.90;;;;;;5029209;28;20496;-47
2023/02/02 05:56:54;;;;;;;8.25;1.70;;;8.60;99.90;;;;;;5033716;28;20018;-41
2023/02/02 05:59:20;;;;;;;;;;;8.50;99.90;;;;;;5037090;28;20017;-42
2023/02/02 06:01:46;;;;;;;11.85;1.60;;;8.50;99.90;;;;;;5035691;28;20011;-44
2023/02/02 06:04:12;;;;;;;6.88;1.45;;;8.40;99.90;;;;;;5036468;28;20029;-39
2023/02/02 06:06:38;;;;;;;15.88;2.38;;;8.40;99.90;;;;;;5032859;28;20028;-40
2023/02/02 06:09:05;;;;;;;18.02;2.38;;;8.50;99.90;;;;;;5035193;28;20465;-45
2023/02/02 06:11:31;;;;;;;12.63;2.17;;;8.50;99.90;;;;;;5028757;28;20489;-43
2023/02/02 06:13:56;;;;;;;17.52;2.00;;;8.50;99.90;;;;;;5016722;28;20029;-46
2023/02/02 06:16:22;;;;;;;7.95;1.73;;;8.50;99.90;;;;;;5023107;28;20060;-41
2023/02/02 06:18:48;;;;;;;10.85;1.52;;;8.50;99.90;;;;;;5036235;28;20025;-41
2023/02/02 06:21:14;;;;;;;7.65;1.88;;;8.50;99.90;;;;;;5030288;28;20030;-40
2023/02/02 06:23:44;;;;;;;13.45;2.63;;;8.50;99.90;;;;;;5016418;28;20462;-42
2023/02/02 06:26:11;;;;;;;13.43;2.78;;;8.50;99.90;;;;;;5020902;28;20487;-41
2023/02/02 06:28:37;;;;;;;12.07;1.77;;;8.50;99.90;;;;;;5035716;28;20021;-43
2023/02/02 06:31:08;;;;;;;7.05;1.83;;;8.50;99.90;;;;;;5034198;28;20367;-43
2023/02/02 06:33:34;;;;;;;17.90;2.40;;;8.50;99.90;;;;;;5036012;28;20039;-42
2023/02/02 06:36:01;;;;;;;11.43;2.33;;;8.50;99.90;;;;;;5029554;28;20113;-42
2023/02/02 06:38:27;;;;;;;16.53;2.33;;;8.50;99.90;;;;;;5016218;28;20393;-41
2023/02/02 06:40:53;;;;;;;6.32;2.40;;;8.50;99.90;;;;;;5023462;28;20112;-42
2023/02/02 06:43:18;;;;;;;15.52;3.25;;;8.50;99.90;;;;;;5035959;28;20483;-43
2023/02/02 06:45:44;;;;;;;13.45;2.10;;;8.40;99.90;;;;;;5034679;28;20470;-46
2023/02/02 06:48:10;;;;;;;24.73;3.00;;;8.40;99.90;;;;;;5035059;28;20022;-42
2023/02/02 06:50:37;;;;;;;18.00;1.65;;;8.40;99.90;;;;;;5029386;28;20022;-42
2023/02/02 06:53:03;;;;;;;16.58;1.95;;;8.30;99.90;;;;;;5015815;28;20061;-44
2023/02/02 06:55:29;;;;;;;12.60;1.85;;;8.30;99.90;;;;;;5019142;28;20488;-42
2023/02/02 06:57:59;;;;;;;16.33;2.83;;;8.20;99.90;;;;;;5035805;28;20045;-45
2023/02/02 07:00:25;;;;;;;12.15;2.25;;;8.20;99.90;;;;;;5034114;28;20039;-50
2023/02/02 07:02:51;;;;;;;5.28;1.70;;;8.30;99.90;;;;;;5032836;28;20071;-46
2023/02/02 07:05:22;;;;;;;12.80;2.05;;;8.20;99.90;;;;;;5034742;28;20473;-46
2023/02/02 07:07:49;;;;;;;15.93;2.25;;;8.20;99.90;;;;;;5034021;28;20046;-42
2023/02/02 07:10:15;;;;;;;12.38;2.17;;;8.10;99.90;;;;;;5031997;28;20033;-41
2023/02/02 07:12:40;;;;;;;20.27;2.33;;;8.20;99.90;;;;;;5029271;28;20083;-42
2023/02/02 07:15:07;;;;;;;7.05;2.90;;;8.20;99.90;;;;;;5029953;28;20037;-39
2023/02/02 07:17:32;;;;;;;7.88;2.03;;;8.20;99.90;;;;;;5032417;28;20485;-41
2023/02/02 07:19:58;;;;;;;21.00;3.00;;;8.20;99.90;;;;;;5015236;28;20092;-39
2023/02/02 07:22:23;;;;;;;12.05;1.60;;;8.20;99.90;;;;;;5021132;28;20399;-53
2023/02/02 07:24:49;;;;;;;14.73;2.75;;;8.20;99.90;;;;;;5015578;28;20101;-40
2023/02/02 07:27:14;;;;;;;9.27;2.08;;;8.20;99.90;;;;;;5015309;28;20028;-39
2023/02/02 07:29:40;;;;;;;17.33;2.63;;;8.20;99.90;;;;;;5017577;28;20504;-41
2023/02/02 07:32:06;;;;;;;17.45;2.15;;;8.20;99.90;;;;;;5024190;28;20037;-45
2023/02/02 07:34:31;;;;;;;12.05;2.47;;;8.20;99.90;;;;;;5031508;28;20432;-44
2023/02/02 07:36:57;;;;;;;16.92;2.13;;;8.20;99.90;;;;;;5017330;28;20030;-45
2023/02/02 07:39:23;;;;;;;8.00;1.77;;;8.20;99.90;;;;;;5014944;28;20505;-49
2023/02/02 07:41:48;;;;;;;13.63;2.67;;;8.30;99.90;;;;;;5033042;28;20029;-43
2023/02/02 07:44:15;;;;;;;13.90;2.25;;;8.20;99.90;;;;;;5034552;28;20034;-43
2023/02/02 07:46:43;;;;;;;15.75;2.78;;;8.20;99.90;;;;;;5028898;28;20029;-47
2023/02/02 07:49:17;;;;;;;17.27;2.53;;;8.30;99.90;;;;;;5014635;28;20172;-42
2023/02/02 07:51:43;;;;;;;20.98;3.00;;;8.30;99.90;;;;;;5027191;28;20080;-43
2023/02/02 07:54:09;;;;;;;14.15;2.25;;;8.30;99.90;;;;;;5034341;28;20026;-43
2023/02/02 07:56:36;;;;;;;14.77;1.65;;;8.30;99.90;;;;;;5016798;28;20515;-44
2023/02/02 07:59:02;;;;;;;12.93;1.90;;;8.30;99.90;;;;;;5020317;28;20037;-41
2023/02/02 08:01:28;;;;;;;7.53;1.85;;;8.40;99.90;;;;;;5022267;28;20030;-44
2023/02/02 08:03:57;;;;;;;8.43;1.67;;;8.40;99.90;;;;;;5025048;28;20470;-48
2023/02/02 08:06:31;;;;;;;20.50;1.95;;;8.40;99.90;;;;;;5020565;28;20095;-43
2023/02/02 08:08:58;;;;;;;20.67;2.30;;;8.40;99.90;;;;;;5029972;28;20033;-38
2023/02/02 08:11:25;;;;;;;12.57;1.83;;;8.50;99.90;;;;;;5033787;28;20022;-36
2023/02/02 08:13:54;;;;;;;9.95;1.63;;;8.50;99.90;;;;;;5031157;28;20022;-36
2023/02/02 08:16:20;;;;;;;11.18;1.92;;;8.50;99.90;;;;;;5027796;28;20113;-38
2023/02/02 08:18:47;;;;;;;17.88;2.40;;;8.40;99.90;;;;;;5032222;28;20565;-39
2023/02/02 08:21:13;;;;;;;14.25;2.47;;;8.50;99.90;;;;;;5028250;28;20523;-37
2023/02/02 08:23:41;;;;;;;11.30;2.13;;;8.50;99.90;;;;;;5021263;28;20049;-39
2023/02/02 08:26:08;;;;;;;11.85;1.88;;;8.40;99.90;;;;;;5024801;28;20032;-39
2023/02/02 08:28:35;;;;;;;10.65;1.83;;;8.40;99.90;;;;;;5028801;28;20478;-37
2023/02/02 08:31:22;;;;;;;10.45;2.05;;;8.40;99.90;;;;;;5012930;28;20113;-38
2023/02/02 08:33:48;;;;;;;9.73;2.78;;;8.50;99.90;;;;;;5021772;28;20026;-41
2023/02/02 08:36:16;;;;;;;18.02;2.42;;;8.60;99.90;;;;;;5016865;28;20030;-41
2023/02/02 08:38:42;;;;;;;10.65;2.65;;;8.60;99.90;;;;;;5032712;28;20433;-34
2023/02/02 08:41:11;;;;;;;16.45;2.40;;;8.60;99.90;;;;;;5019374;28;20025;-40
2023/02/02 08:43:37;;;;;;;18.92;1.98;;;8.50;99.90;;;;;;5020847;28;20489;-38
2023/02/02 08:46:04;;;;;;;12.88;2.03;;;8.60;99.90;;;;;;5013598;28;20081;-38
2023/02/02 08:48:30;;;;;;;11.85;1.70;;;8.70;99.90;;;;;;5023352;28;20021;-42
2023/02/02 08:50:57;;;;;;;9.45;1.83;;;8.70;99.90;;;;;;5028200;28;20497;-43
2023/02/02 08:53:23;;;;;;;12.10;2.97;;;8.70;99.90;;;;;;5028908;28;20429;-44
2023/02/02 08:55:58;;;;;;;18.98;2.67;;;8.70;99.90;;;;;;5018865;28;20385;-42
2023/02/02 08:58:24;;;;;;;10.50;1.98;;;8.70;99.90;;;;;;5027048;28;20103;-41
2023/02/02 09:00:49;;;;;;;15.15;1.63;;;8.80;99.90;;;;;;5018403;28;20429;-41
2023/02/02 09:03:16;;;;;;;10.05;1.85;;;8.90;99.90;;;;;;5028770;28;20532;-39
2023/02/02 09:05:41;;;;;;;13.10;1.50;;;8.90;99.90;;;;;;5013369;28;20082;-42
2023/02/02 09:08:07;;;;;;;14.95;1.73;;;8.90;99.90;;;;;;5020809;28;20037;-42
2023/02/02 09:10:36;;;;;;;6.82;1.27;;;8.90;99.90;;;;;;5032704;28;20048;-42
2023/02/02 09:13:03;;;;;;;14.20;2.20;;;8.90;99.90;;;;;;5013957;28;20040;-45
2023/02/02 09:15:29;;;;;;;11.80;2.08;;;9.00;99.90;;;;;;5024500;28;20033;-42
2023/02/02 09:17:55;;;;;;;14.77;1.75;;;9.00;99.90;;;;;;5024143;28;20048;-43
2023/02/02 09:20:21;;;;;;;9.07;2.03;;;9.00;99.90;;;;;;5033240;28;20033;-41
2023/02/02 09:22:47;;;;;;;11.65;1.75;;;9.10;99.90;;;;;;5031615;28;20025;-40
2023/02/02 09:25:13;;;;;;;8.77;1.30;;;9.10;99.90;;;;;;5021074;28;20482;-45
2023/02/02 09:27:39;;;;;;;13.00;1.67;;;9.10;99.90;;;;;;5014467;28;20049;-42
2023/02/02 09:30:06;;;;;;;16.38;1.92;;;9.20;99.90;;;;;;5014823;28;20037;-45
2023/02/02 09:32:32;;;;;;;6.57;1.55;;;9.10;99.90;;;;;;5023059;28;20021;-44
2023/02/02 09:34:59;;;;;;;13.20;2.83;;;9.20;99.90;;;;;;5020389;28;20032;-39
2023/02/02 09:37:28;;;;;;;9.93;1.75;;;9.10;99.90;;;;;;5028649;28;20061;-40
2023/02/02 09:39:53;;;;;;;19.13;2.72;;;9.10;99.90;;;;;;5023318;28;20021;-44
2023/02/02 09:42:33;;;;;;;7.00;1.55;;;9.10;99.90;;;;;;5022872;28;20367;-43
2023/02/02 09:45:07;;;;;;;10.18;2.92;;;9.10;99.90;;;;;;5035142;28;20475;-44
2023/02/02 09:47:44;;;;;;;7.35;2.22;;;9.10;99.90;;;;;;5024943;28;20018;-38
2023/02/02 09:50:41;;;;;;;8.98;1.88;;;9.10;99.90;;;;;;5021262;28;20434;-43
2023/02/02 09:53:24;;;;;;;16.55;1.65;;;9.10;99.90;;;;;;5018731;28;20390;-42
2023/02/02 09:55:53;;;;;;;7.40;1.50;;;9.00;99.90;;;;;;5028732;28;20465;-47
2023/02/02 09:58:26;;;;;;;12.27;1.95;;;9.00;99.90;;;;;;5019006;28;20030;-41
2023/02/02 10:01:16;;;;;;;19.52;2.80;;;9.20;99.90;;;;;;5020488;28;20168;-41
2023/02/02 10:04:18;;;;;;;9.25;2.40;;;9.20;99.90;;;;;;5013475;28;20068;-40
2023/02/02 10:06:47;;;;;;;15.15;2.70;;;9.20;99.90;;;;;;5022394;28;20533;-43
2023/02/02 10:09:46;;;;;;;11.07;1.92;;;9.20;99.90;;;;;;5030340;28;20424;-41
2023/02/02 10:12:27;;;;;;;11.38;1.38;;;9.20;99.90;;;;;;5025389;28;20033;-43
2023/02/02 10:15:11;;;;;;;6.50;1.35;;;9.20;99.90;;;;;;5029400;28;20101;-41
2023/02/02 10:17:44;;;;;;;12.60;2.33;;;9.30;99.90;;;;;;5011288;28;20033;-44
2023/02/02 10:20:22;;;;;;;15.73;2.53;;;9.30;99.90;;;;;;5027845;28;20506;-41
2023/02/02 10:22:49;;;;;;;16.10;3.17;;;9.20;99.90;;;;;;5024392;28;20037;-45
2023/02/02 10:25:16;;;;;;;17.65;2.45;;;9.30;99.90;;;;;;5026408;28;20470;-40
2023/02/02 10:27:57;;;;;;;13.55;2.03;;;9.20;99.90;;;;;;5030704;28;20029;-42
2023/02/02 10:30:41;;;;;;;10.60;2.20;;;9.30;99.90;;;;;;5027297;28;20033;-46
2023/02/02 10:33:18;;;;;;;10.90;1.70;;;9.40;99.90;;;;;;5032759;28;20036;-44
2023/02/02 10:36:09;;;;;;;15.55;2.83;;;9.30;99.90;;;;;;5021782;28;20017;-42
2023/02/02 10:39:11;;;;;;;12.32;2.28;;;9.40;99.90;;;;;;5033860;28;20025;-41
2023/02/02 10:41:57;;;;;;;13.73;1.77;;;9.50;99.90;;;;;;5025547;28;20057;-43
2023/02/02 10:44:43;;;;;;;9.52;2.33;;;9.50;99.90;;;;;;5028755;28;20042;-45
2023/02/02 10:47:14;;;;;;;20.95;2.13;;;9.30;99.90;;;;;;5035210;28;20367;-44
2023/02/02 10:49:40;;;;;;;19.42;1.92;;;9.40;99.90;;;;;;5032633;28;20061;-45
2023/02/02 10:52:28;;;;;;;9.18;1.42;;;9.40;99.90;;;;;;5053754;28;20045;-42
2023/02/02 10:55:14;;;;;;;;;;;9.40;99.90;;;;;;5031209;28;20036;-43
2023/02/02 10:57:57;;;;;;;12.65;1.33;;;9.50;99.90;;;;;;5030495;28;19909;-44
2023/02/02 11:00:39;;;;;;;6.45;1.58;;;9.60;99.90;;;;;;5031251;28;20530;-44
2023/02/02 11:03:07;;;;;;;13.60;2.30;;;9.80;99.90;;;;;;5031914;28;20083;-36
2023/02/02 11:08:38;;;;;;;13.98;2.58;;;9.90;99.90;;;;;;5028371;28;20036;-40
2023/02/02 11:11:24;;;;;;;7.65;1.58;;;9.90;99.90;;;;;;5019483;28;20050;-40
2023/02/02 11:13:54;;;;;;;6.03;1.75;;;9.90;99.90;;;;;;5033036;28;20041;-44
2023/02/02 11:16:32;;;;;;;10.38;1.42;;;9.90;99.90;;;;;;5032213;28;20044;-41
2023/02/02 11:18:57;;;;;;;3.88;1.55;;;10.00;99.90;;;;;;5031094;28;20025;-42
2023/02/02 11:21:32;;;;;;;17.70;1.92;;;10.10;99.90;;;;;;5016145;28;20390;-42
2023/02/02 11:24:29;;;;;;;5.50;1.98;;;10.10;99.90;;;;;;5022339;28;20120;-46
2023/02/02 11:27:05;;;;;;;27.08;3.13;;;10.10;99.90;;;;;;5022715;28;20045;-42
2023/02/02 11:29:51;;;;;;;8.70;2.45;;;10.00;99.90;;;;;;5026756;28;20389;-40
2023/02/02 11:32:34;;;;;;;15.02;1.65;;;10.00;99.90;;;;;;5025267;28;20105;-44
2023/02/02 11:35:22;;;;;;;3.08;0.90;;;10.00;99.90;;;;;;5019409;28;20034;-46
2023/02/02 11:38:17;;;;;;;9.32;1.55;;;9.90;99.90;;;;;;5026080;28;20048;-43
2023/02/02 11:40:45;;;;;;;14.10;2.10;;;9.90;99.90;;;;;;5015433;28;20042;-37
2023/02/02 11:43:33;;;;;;;20.58;1.90;;;9.90;99.90;;;;;;5028466;28;20064;-42
2023/02/02 11:46:04;;;;;;;12.57;1.48;;;10.00;99.90;;;;;;5032546;28;20487;-43
2023/02/02 11:48:38;;;;;;;16.85;2.35;;;9.90;99.90;;;;;;5034660;28;20035;-41
2023/02/02 11:51:06;;;;;;;20.40;1.88;;;9.90;99.90;;;;;;5031265;28;20432;-41
2023/02/02 11:53:45;;;;;;;7.25;1.50;;;9.80;99.90;;;;;;5025411;28;20034;-44
2023/02/02 11:56:37;;;;;;;11.73;2.47;;;9.80;99.90;;;;;;5020693;28;20044;-47
2023/02/02 11:59:04;;;;;;;12.05;1.65;;;9.80;99.90;;;;;;5030750;28;20044;-45
2023/02/02 12:01:35;;;;;;;13.10;1.40;;;9.90;99.90;;;;;;5004643;28;20044;-44
2023/02/02 12:04:22;;;;;;;7.15;1.33;;;9.80;99.90;;;;;;5023918;28;20044;-47
2023/02/02 12:06:48;;;;;;;9.63;1.42;;;9.80;99.90;;;;;;5032690;28;20026;-36
2023/02/02 12:09:20;;;;;;;13.02;2.03;;;9.80;99.90;;;;;;5031868;28;20386;-39
2023/02/02 12:12:11;;;;;;;9.13;1.67;;;9.80;99.90;;;;;;5032376;28;20115;-36
2023/02/02 12:14:54;;;;;;;15.25;1.88;;;9.80;99.90;;;;;;5029587;28;20048;-40
2023/02/02 12:17:37;;;;;;;9.02;1.65;;;9.80;99.90;;;;;;5030802;28;20029;-34
2023/02/02 12:20:07;;;;;;;13.43;2.22;;;9.80;99.90;;;;;;5022465;28;20082;-38
2023/02/02 12:22:57;;;;;;;6.13;1.13;;;9.70;99.90;;;;;;5030932;28;20041;-40
2023/02/02 12:25:36;;;;;;;6.97;1.70;;;9.80;99.90;;;;;;5031904;28;20393;-40
2023/02/02 12:28:28;;;;;;;3.80;1.17;;;9.90;99.90;;;;;;5018098;28;20381;-39
2023/02/02 12:31:25;;;;;;;6.88;1.27;;;9.90;99.90;;;;;;5030188;28;20018;-38
2023/02/02 12:33:58;;;;;;;5.93;1.58;;;9.90;99.90;;;;;;5026294;28;20081;-36
2023/02/02 12:36:39;;;;;;;5.40;1.55;;;9.80;99.90;;;;;;5029268;28;20478;-39
2023/02/02 12:39:26;;;;;;;0.85;0.63;;;9.70;99.90;;;;;;5021795;28;20117;-34
2023/02/02 12:42:22;;;;;;;19.50;2.83;;;9.60;99.90;;;;;;5033377;28;20380;-35
2023/02/02 12:45:03;;;;;;;7.43;1.25;;;9.60;99.90;;;;;;5033821;28;20029;-38
2023/02/02 12:48:11;;;;;;;10.98;1.27;;;9.60;99.90;;;;;;5025230;28;20131;-37
2023/02/02 12:50:52;;;;;;;29.23;3.40;;;9.60;99.90;;;;;;5027223;28;20112;-40
2023/02/02 12:53:37;;;;;;;10.40;1.25;;;9.50;99.90;;;;;;5033115;28;20088;-36
2023/02/02 12:56:30;;;;;;;9.38;1.70;;;9.50;99.90;;;;;;5022889;28;20025;-37
2023/02/02 12:59:32;;;;;;;11.40;1.00;;;9.50;99.90;;;;;;5017043;28;20026;-37
2023/02/02 13:02:16;;;;;;;20.38;2.20;;;9.50;99.90;;;;;;5019764;28;20104;-41
2023/02/02 13:04:56;;;;;;;4.97;2.08;;;9.50;99.90;;;;;;5027284;28;20025;-39
2023/02/02 13:07:42;;;;;;;4.07;1.42;;;9.50;99.90;;;;;;5029671;28;20064;-38
2023/02/02 13:10:27;;;;;;;11.82;1.77;;;9.50;99.90;;;;;;5029974;28;20060;-40
2023/02/02 13:13:02;;;;;;;5.30;1.10;;;9.40;99.90;;;;;;5031082;28;20486;-39
2023/02/02 13:15:34;;;;;;;14.30;1.67;;;9.40;99.90;;;;;;5027127;28;20025;-34
2023/02/02 13:18:05;;;;;;;13.00;3.35;;;9.40;99.90;;;;;;5025485;28;20424;-40
2023/02/02 13:20:43;;;;;;;12.55;2.88;;;9.40;99.90;;;;;;5030239;28;20072;-39
2023/02/02 13:23:24;;;;;;;4.88;1.52;;;9.40;99.90;;;;;;5024960;28;20076;-35